Nome の空港の天気 - METARとTAF

Nome, Nome Airport ( PAOM / OME ) - アメリカ アラスカ州Nome
飛行場実況気象(Metar)
観測時間01/19 02:11 AKST (01/19 11:11 UTC)
風向・風速東北東 3m/s
視程6450m
天気現象弱い雪 もや
全天の8割程度の雲 雲底高度 580m
全天の8割程度の雲 雲底高度 1460m
全天を覆う雲 雲底高度 1830m
気温-13.3℃
湿度83%
気圧1018hPa
METARPAOM 191111Z AUTO 07006KT 4SM -SN BR BKN019 BKN048 OVC060 M13/M16 A3005 RMK AO2 P0000 T11331156 TSNO
過去の天気等 Google飛行場航空写真 Wunderground天気予報

過去48時間のMETAR

飛行場予報(TAF)
発表時間: 1/18 23:09 AKST (1/19 08:09 UTC)
予報対象時間: 18日23時 AKST ~ 19日21時 AKST
風向・風速静穏
視程10km以上
全天の8割程度の雲 雲底高度 460m
全天を覆う雲 雲底高度 760m
19日5時 AKST から
風向・風速静穏
視程10km以上
全天の8割程度の雲 雲底高度 1520m
19日15時 AKST から
風向・風速静穏
視程10km以上
全天の4割程度の雲 雲底高度 7620m
PAOM 190809Z 1908/2006 00000KT P6SM BKN015 OVC025
FM191400 00000KT P6SM BKN050
FM200000 00000KT P6SM SCT250